首页
METAR-TAF:

METAR-TAF

机场 :

温尼伯詹姆斯·阿姆斯特朗·理查森国际机场

温尼伯, 曼尼托巴, 加拿大

纬度: 49-54N, 经度: 097-14W, 海拔: 239米

当前天气观测

该预报发布于1小时和7分钟前的21:00 UTC
风速3节,风向北转西北,在西北东北之间变化
温度 22°C
湿度 65%
气压 1011 hPa
能見度: 24.1公里
散云层高于3600英尺

METAR: CYWG 232100Z 34003KT 320V040 15SM SCT036 22/15 A2985 RMK CU3 SLP112 DENSITY ALT 1900FT

时间: 17:07 (22:07 UTC)

预报

该预报发布于4小时和27分钟前的17:40 UTC
预报有效从23日的 18点(UTC)到 24日的 18点(UTC)
风速8节,风向北转西北
能見度: 10公里
多云层高于2000英尺
阴天层高于4000英尺
短暂存在
从 23日的 18点(UTC)到 23日的 19点(UTC)
散云层高于2000英尺
多云层高于4000英尺
从 23日的 1900点(UTC)
风速10节,风向
能見度: 10公里
多云层高于4000英尺
从 23日的 2300点(UTC)
风速6节,风向南转南东
能見度: 10公里
少量云层高于4000英尺
散云层高于24000英尺
从 24日的 0900点(UTC)
风速10节,风向
能見度: 10公里
散云层高于12000英尺
多云层高于24000英尺
从 24日的 1400点(UTC)
风速15节,风向南转西南,有时为25节阵风
能見度: 10公里
散云层高于2000英尺
多云层高于18000英尺
从 24日的 1700点(UTC)
风速20节,风向多变,有时为30节阵风
能見度: 10公里
多云层高于5000英尺, 积雨云.
附近有雷暴

TAF: CYWG 231740Z 2318/2418 34008KT P6SM BKN020 OVC040 TEMPO 2318/2319 SCT020 BKN040 FM231900 01010KT P6SM BKN040 FM232300 16006KT P6SM FEW040 SCT240 FM240900 18010KT P6SM SCT120 BKN240 FM241400 21015G25KT P6SM SCT020 BKN180 FM241700 VRB20G30KT P6SM VCTS BKN050CB RMK NXT FCST BY 240000Z

超过4000个机场的气象观测和天气预报(METAR&TAF报告)。

可查询的气象台以黄色和红色小点在地图上表示。

将鼠标移到小点上方,可查看气象台名称。

然后点击查看天气观测和预报。

如需切换地图:点击带黑十字的绿色按钮放大地图;点击带横线的绿色按钮缩小地图;或者点击绿色箭头查看邻近地区的地图。


METAR-TAF: